Repubbli Del Brasile — IBZB — position and weather

sailwx.info

Track history (hours):
 
Tides and Currents Weather Stations Pressure Air Temp Water Temp Dewpoint Dewpoint Depression Visibility Wind Speed Wind Dir Waves Ship Positions

Repubbli Del Brasile

Last reported at 2016-Sep-24 10:31 UTC. Time now 2016-Sep-28 03:31 UTC.
Position N 05°17' W 004°01'.

Length 209 m; draft 8.8 m.

Type: Ship (hazmat cat B). MMSI: 247310000.

Date/timePositionNaut miles runAvg speedWind from/ knotsBaromVisibWave heightAir tempDewpointWater temp
2016-Sep-24 10:31N 05°17' W 004°01'0 0.0
2016-Sep-24 01:30N 05°17' W 004°01'1 0.2
2016-Sep-23 19:33N 05°16' W 004°01'  
2016-Sep-20 17:16N 14°41' W 017°26'0 0.0
2016-Sep-20 14:33N 14°41' W 017°26'0 0.0
2016-Sep-20 13:32N 14°41' W 017°26'0 0.0
2016-Sep-20 10:31N 14°41' W 017°26'0 0.0
2016-Sep-20 08:33N 14°41' W 017°26'0 0.0
2016-Sep-20 07:33N 14°41' W 017°26'0 0.0
2016-Sep-20 06:17N 14°41' W 017°26'0 0.0
2016-Sep-20 02:33N 14°41' W 017°26'0 0.0
2016-Sep-19 23:29N 14°41' W 017°26'5 0.4
2016-Sep-19 12:33N 14°38' W 017°22'9 7.8
2016-Sep-19 11:24N 14°38' W 017°31'  
2016-Sep-17 05:26N 27°43' W 014°07'8517.4
2016-Sep-17 00:33N 28°57' W 013°20'  
Track history (hours):
 
Tides and Currents Weather Stations Pressure Air Temp Water Temp Dewpoint Dewpoint Depression Visibility Wind Speed Wind Dir Waves Ship Positions

Repubbli Del Brasile

Last reported at 2016-Sep-24 10:31 UTC. Time now 2016-Sep-28 03:31 UTC.
Position N 05°17' W 004°01'.

Length 209 m; draft 8.8 m.

Type: Ship (hazmat cat B). MMSI: 247310000.

Date/timePositionNaut miles runAvg speedWind from/ knotsBaromVisibWave heightAir tempDewpointWater temp
2016-Sep-24 10:31N 05°17' W 004°01'0 0.0
2016-Sep-24 01:30N 05°17' W 004°01'1 0.2
2016-Sep-23 19:33N 05°16' W 004°01'  
2016-Sep-20 17:16N 14°41' W 017°26'0 0.0
2016-Sep-20 14:33N 14°41' W 017°26'0 0.0
2016-Sep-20 13:32N 14°41' W 017°26'0 0.0
2016-Sep-20 10:31N 14°41' W 017°26'0 0.0
2016-Sep-20 08:33N 14°41' W 017°26'0 0.0
2016-Sep-20 07:33N 14°41' W 017°26'0 0.0
2016-Sep-20 06:17N 14°41' W 017°26'0 0.0
2016-Sep-20 02:33N 14°41' W 017°26'0 0.0
2016-Sep-19 23:29N 14°41' W 017°26'5 0.4
2016-Sep-19 12:33N 14°38' W 017°22'9 7.8
2016-Sep-19 11:24N 14°38' W 017°31'  
2016-Sep-17 05:26N 27°43' W 014°07'8517.4
2016-Sep-17 00:33N 28°57' W 013°20'  

Dump ship's entire track history